Stations météo

réclame
Mon MeteoGroup
Malaga,Puerto, Espagne (8479): Température de l'air & dewpoint: 12.08.2018 02:00:00 - 18.08.2018 02:00:00 (CEST)Malaga,Puerto, Espagne (8479): Vitesse du vent & gusts: 12.08.2018 02:00:00 - 18.08.2018 02:00:00 (CEST)Malaga,Puerto, Espagne (8479): Direction du vent: 12.08.2018 02:00:00 - 18.08.2018 02:00:00 (CEST)Malaga,Puerto, Espagne (8479): reduced air pressure: 12.08.2018 02:00:00 - 18.08.2018 02:00:00 (CEST)Malaga,Puerto, Espagne (8479): Quantités de précipitations: 12.08.2018 02:00:00 - 18.08.2018 02:00:00 (CEST)
Date & Time tt [°C] td [°C] ff [km/h] ff [knt] fx [km/h] fx [knt] dd ppp [hPa] rr [mm]
18.08.2018 02:00:00 25,1 15,4 4 2 11 6 NNW 1014,6 -
18.08.2018 01:00:00 24,3 17,8 1 0 5 3 S 1014,8 0,0
18.08.2018 00:00:00 24,6 18,3 0 0 5 3 ESE 1014,7 0,0
17.08.2018 23:00:00 25,3 16,2 4 2 7 4 E 1014,3 0,0
17.08.2018 22:00:00 25,2 17,7 1 1 6 4 E 1013,6 0,0
17.08.2018 21:00:00 25,4 18,3 4 2 8 5 SE 1013,4 0,0
17.08.2018 20:00:00 25,7 18,1 4 2 9 5 SE 1013,1 -
17.08.2018 19:00:00 24,9 17,9 6 3 13 7 SE 1013,0 0,0
17.08.2018 18:00:00 26,4 18,3 8 5 16 9 S 1012,6 0,0
17.08.2018 17:00:00 25,7 17,9 9 5 14 8 SSE 1013,3 0,0
17.08.2018 16:00:00 26,9 19,0 9 5 15 8 S 1013,8 0,0
17.08.2018 15:00:00 26,2 17,6 8 4 13 7 SSE 1014,1 0,0
17.08.2018 14:00:00 26,8 17,8 7 4 15 8 SSE 1014,5 -
17.08.2018 13:00:00 25,3 17,7 9 5 13 7 SE 1014,7 0,0
17.08.2018 12:00:00 25,7 18,1 9 5 19 10 SE 1014,7 0,0
17.08.2018 11:00:00 27,5 17,7 10 6 14 8 E 1014,0 0,0
17.08.2018 10:00:00 25,2 16,9 8 4 15 8 SE 1013,5 0,0
17.08.2018 09:00:00 25,9 16,5 5 3 19 10 WSW 1013,1 0,0
17.08.2018 08:00:00 24,4 16,9 10 5 20 11 W 1013,4 -
17.08.2018 07:00:00 24,4 17,4 8 4 16 9 W 1013,1 0,0
17.08.2018 06:00:00 24,2 17,7 5 3 17 9 NW 1013,1 0,0
17.08.2018 05:00:00 24,3 18,0 9 5 18 10 W 1013,2 0,0
17.08.2018 04:00:00 24,2 16,7 9 5 14 7 NW 1013,5 0,0
17.08.2018 03:00:00 24,3 18,7 6 3 11 6 N 1014,1 0,0
17.08.2018 02:00:00 24,5 18,2 7 4 11 6 NE 1014,5 -
17.08.2018 01:00:00 23,8 19,5 3 1 11 6 SSE 1014,7 0,0
17.08.2018 00:00:00 24,4 19,9 8 4 16 8 S 1014,7 0,0
16.08.2018 23:00:00 24,8 19,6 6 3 12 7 SSE 1014,3 0,0
16.08.2018 22:00:00 26,2 18,1 5 3 9 5 SSE 1013,4 0,0
16.08.2018 21:00:00 25,7 16,5 3 2 9 5 E 1012,9 0,0
16.08.2018 20:00:00 - - - - - - - - -
16.08.2018 19:00:00 26,8 16,7 5 3 10 5 ESE 1012,7 0,0
16.08.2018 18:00:00 26,3 16,8 8 5 17 9 SSE 1012,9 0,0
16.08.2018 17:00:00 26,6 17,1 13 7 19 10 S 1013,5 0,0
16.08.2018 16:00:00 26,0 17,9 14 8 19 10 SSE 1013,6 0,0
16.08.2018 15:00:00 26,4 16,6 13 7 20 11 S 1014,0 0,0
16.08.2018 14:00:00 27,4 17,0 10 5 20 11 SSE 1014,3 -
16.08.2018 13:00:00 26,8 17,6 13 7 24 13 S 1014,8 0,0
16.08.2018 12:00:00 26,0 18,4 13 7 22 12 S 1014,8 0,0
16.08.2018 11:00:00 26,3 19,4 8 4 14 8 S 1014,5 0,0
16.08.2018 10:00:00 25,5 20,3 8 5 13 7 S 1014,4 0,0
16.08.2018 09:00:00 24,2 20,5 7 4 14 7 SSW 1014,2 0,0
16.08.2018 08:00:00 23,9 20,8 11 6 14 8 SSW 1014,1 -
16.08.2018 07:00:00 24,4 20,9 3 2 10 5 SSW 1013,7 0,0
16.08.2018 06:00:00 24,8 21,3 7 4 10 5 S 1013,6 0,0
16.08.2018 05:00:00 24,5 21,6 0 0 5 3 ENE 1013,6 0,0
16.08.2018 04:00:00 24,3 21,4 0 0 13 7 WSW 1013,9 0,0
16.08.2018 03:00:00 24,3 21,6 8 4 11 6 SSW 1014,3 0,0
16.08.2018 02:00:00 24,6 21,7 6 3 10 5 S 1014,4 -
16.08.2018 01:00:00 25,1 21,6 6 4 14 8 S 1014,5 0,0
16.08.2018 00:00:00 25,2 21,3 6 3 10 6 SSE 1014,4 0,0
15.08.2018 23:00:00 25,8 21,2 4 2 11 6 ESE 1014,3 0,0
15.08.2018 22:00:00 26,1 20,9 3 2 11 6 SSW 1013,8 0,0
15.08.2018 21:00:00 26,0 20,3 7 4 13 7 SE 1013,4 0,0
15.08.2018 20:00:00 26,7 20,1 7 4 13 7 SE 1013,2 -
15.08.2018 19:00:00 27,3 19,4 6 4 12 6 SE 1013,4 0,0
15.08.2018 18:00:00 28,3 19,5 7 4 14 8 SSE 1013,6 0,0
15.08.2018 17:00:00 28,5 20,2 10 5 14 7 S 1013,7 0,0
15.08.2018 16:00:00 28,8 20,5 8 4 16 8 S 1014,2 0,0
15.08.2018 15:00:00 28,1 21,1 10 5 17 9 S 1014,7 0,0
15.08.2018 14:00:00 27,4 20,7 13 7 18 10 S 1015,3 -
15.08.2018 13:00:00 27,9 20,5 7 4 14 8 S 1015,5 0,0
15.08.2018 12:00:00 26,9 21,0 11 6 16 8 S 1015,7 0,0
15.08.2018 11:00:00 26,2 21,4 4 2 18 10 SE 1015,6 0,0
15.08.2018 10:00:00 25,7 20,9 5 3 15 8 ESE 1015,4 0,0
15.08.2018 09:00:00 25,5 20,7 4 2 16 9 ESE 1015,4 0,0
15.08.2018 08:00:00 25,5 18,9 0 0 9 5 SSE 1015,0 -
15.08.2018 07:00:00 24,1 17,6 5 3 10 5 NW 1014,3 0,0
15.08.2018 06:00:00 24,2 20,3 5 3 17 9 NE 1014,3 0,0
15.08.2018 05:00:00 23,3 20,6 5 3 18 10 E 1014,1 0,0
15.08.2018 04:00:00 24,3 21,2 8 4 15 8 ESE 1014,2 0,0
15.08.2018 03:00:00 23,9 20,0 4 2 10 5 NNE 1014,0 0,0
15.08.2018 02:00:00 23,9 19,4 5 3 8 4 E 1014,4 -
15.08.2018 01:00:00 23,5 20,2 4 2 14 8 SSE 1014,2 0,0
15.08.2018 00:00:00 24,8 21,1 8 5 16 9 ESE 1014,0 0,0
14.08.2018 23:00:00 25,1 20,8 7 4 10 6 SSW 1013,8 0,0
14.08.2018 22:00:00 25,3 21,0 3 1 16 9 SE 1012,8 0,0
14.08.2018 21:00:00 25,7 20,5 3 1 17 9 ESE 1012,5 0,0
14.08.2018 20:00:00 25,6 20,2 14 8 26 14 ESE 1012,1 -
14.08.2018 19:00:00 26,8 19,2 8 4 23 12 E 1012,2 0,0
14.08.2018 18:00:00 27,6 17,7 12 6 29 16 E 1012,3 0,0
14.08.2018 17:00:00 26,2 18,1 10 5 23 12 E 1012,6 0,0
14.08.2018 16:00:00 26,8 17,8 13 7 24 13 E 1012,6 0,0
14.08.2018 15:00:00 27,0 16,9 14 8 26 14 E 1012,8 0,0
14.08.2018 14:00:00 27,5 16,8 10 5 23 12 E 1013,1 -
14.08.2018 13:00:00 26,6 16,5 10 6 29 15 SE 1012,7 0,0
14.08.2018 12:00:00 34,2 10,1 12 6 23 13 WSW 1011,9 0,0
14.08.2018 11:00:00 32,2 9,1 11 6 27 15 WSW 1011,6 0,0
14.08.2018 10:00:00 29,7 8,7 13 7 27 15 W 1011,3 0,0
14.08.2018 09:00:00 28,1 7,9 15 8 25 13 W 1011,2 0,0
14.08.2018 08:00:00 27,5 7,4 7 4 25 14 W 1011,6 -
14.08.2018 07:00:00 27,7 7,0 14 7 29 16 W 1011,2 0,0
14.08.2018 06:00:00 28,5 6,6 11 6 24 13 W 1010,6 0,0
14.08.2018 05:00:00 28,7 6,7 14 8 26 14 W 1010,7 0,0
14.08.2018 04:00:00 29,9 7,2 15 8 29 16 WNW 1010,7 0,0
14.08.2018 03:00:00 30,0 7,8 13 7 23 13 WNW 1010,8 0,0
14.08.2018 02:00:00 30,1 7,9 13 7 27 15 NW 1010,8 -
14.08.2018 01:00:00 30,0 9,5 6 3 14 7 WNW 1010,8 0,0
14.08.2018 00:00:00 30,0 11,0 5 3 12 7 NW 1010,5 0,0
13.08.2018 23:00:00 28,6 16,5 8 4 13 7 W 1010,4 0,0
13.08.2018 22:00:00 26,3 17,9 0 0 7 4 SSE 1009,9 0,0
13.08.2018 21:00:00 26,7 17,2 4 2 12 6 E 1009,5 0,0
13.08.2018 20:00:00 26,6 17,9 6 3 14 7 E 1009,4 -
13.08.2018 19:00:00 26,0 17,1 8 4 13 7 E 1009,9 0,0
13.08.2018 18:00:00 26,7 18,0 9 5 19 10 E 1010,4 0,0
13.08.2018 17:00:00 24,5 19,8 9 5 15 8 ESE 1011,2 0,0
13.08.2018 16:00:00 23,7 19,2 8 5 20 11 SE 1011,6 0,0
13.08.2018 15:00:00 23,7 19,6 12 6 20 11 E 1012,3 0,0
13.08.2018 14:00:00 22,9 19,9 10 5 - - SE 1013,1 -
13.08.2018 13:00:00 - - - - - - - - -
13.08.2018 12:00:00 - - - - - - - - -
13.08.2018 11:00:00 - - - - - - - - -
13.08.2018 10:00:00 - - - - - - - - -
13.08.2018 09:00:00 - - - - - - - - -
13.08.2018 08:00:00 - - - - - - - - -
13.08.2018 07:00:00 23,0 20,9 5 3 11 6 E 1011,7 0,0
13.08.2018 06:00:00 22,8 20,7 7 4 13 7 E 1011,5 0,0
13.08.2018 05:00:00 22,9 20,8 5 3 8 4 E 1011,4 0,0
13.08.2018 04:00:00 23,3 21,2 0 0 5 3 ENE 1011,6 0,0
13.08.2018 03:00:00 23,6 21,5 0 0 10 6 E 1012,2 0,0
13.08.2018 02:00:00 24,5 22,2 4 2 8 4 S 1012,5 -
13.08.2018 01:00:00 24,8 22,5 6 3 9 5 E 1012,9 0,0
13.08.2018 00:00:00 24,8 22,3 4 2 8 4 SSE 1013,1 0,0
12.08.2018 23:00:00 25,2 22,3 4 2 10 5 SSE 1013,1 0,0
12.08.2018 22:00:00 25,4 22,1 6 3 10 6 SSE 1012,5 0,0
12.08.2018 21:00:00 25,8 21,2 5 3 8 4 SE 1011,9 0,0
12.08.2018 20:00:00 26,9 21,2 6 3 11 6 SSE 1012,0 -
12.08.2018 19:00:00 26,4 20,5 10 5 14 7 SE 1012,7 0,0
12.08.2018 18:00:00 27,9 20,2 9 5 14 8 SSE 1012,9 0,0
12.08.2018 17:00:00 28,4 20,4 8 5 13 7 S 1013,3 0,0
12.08.2018 16:00:00 28,5 20,0 9 5 13 7 S 1013,8 0,0
12.08.2018 15:00:00 28,5 20,0 10 5 14 8 S 1014,4 0,0
12.08.2018 14:00:00 28,7 19,9 8 4 19 11 SSE 1015,0 -
12.08.2018 13:00:00 27,6 19,9 13 7 21 11 S 1015,5 0,0
12.08.2018 12:00:00 27,7 20,3 11 6 22 12 SSW 1015,3 0,0
12.08.2018 11:00:00 27,0 20,6 13 7 23 13 SSW 1014,7 0,0
12.08.2018 10:00:00 27,5 19,8 10 6 16 8 SSW 1014,4 0,0
12.08.2018 09:00:00 27,7 20,0 0 0 11 6 NNW 1014,4 0,0
12.08.2018 08:00:00 25,0 19,6 6 4 16 9 NW 1014,6 -
12.08.2018 07:00:00 25,2 20,2 6 3 11 6 NNW 1014,0 0,0
12.08.2018 06:00:00 25,4 20,6 5 3 13 7 N 1014,2 0,0
12.08.2018 05:00:00 25,8 21,0 4 2 11 6 NW 1014,2 0,0
12.08.2018 04:00:00 25,6 21,7 0 0 4 2 E 1014,8 0,0
12.08.2018 03:00:00 25,2 22,1 1 1 10 6 ESE 1015,6 0,0
12.08.2018 02:00:00 25,2 22,1 5 3 14 7 ESE 1016,5 -

tt = Température de l'air
td = dewpoint
ff = Vitesse du vent
fx = gusts
dd = Direction du vent
ppp = reduced air pressure
rr = Quantités de précipitations

stations d'obs. à proximité